Time;durP1;ratioP1;P1;durP2;ratioP2;P2;SDS_P1;SDS_P2;PMS_P1;PMS_P2;Temp;Humidity;BMP_temperature;BMP_pressure;BME280_temperature;BME280_humidity;BME280_pressure;Samples;Min_cycle;Max_cycle;Signal;HPM_P1;HPM_P2
2022/06/24 00:00:06;;;;;;;10.95;6.00;;;;;;;17.50;82.00;99898.19;5069364;28;20032;-30
2022/06/24 00:02:32;;;;;;;9.68;6.22;;;;;;;17.24;83.29;99874.72;5069631;28;20061;-33
2022/06/24 00:05:00;;;;;;;10.77;5.95;;;;;;;17.56;81.76;99875.53;5069386;28;20036;-32
2022/06/24 00:07:26;;;;;;;11.65;5.60;;;;;;;17.65;80.96;99879.28;5069458;28;20065;-30
2022/06/24 00:09:51;;;;;;;9.07;6.28;;;;;;;17.66;81.00;99897.91;5087802;28;20032;-39
2022/06/24 00:12:19;;;;;;;9.55;5.80;;;;;;;17.54;81.28;99897.34;5088020;28;20016;-30
2022/06/24 00:14:55;;;;;;;9.77;5.82;;;;;;;17.47;80.89;99872.56;5087531;28;20076;-33
2022/06/24 00:17:21;;;;;;;11.05;5.72;;;;;;;17.22;83.00;99887.66;5088265;28;20032;-32
2022/06/24 00:19:55;;;;;;;9.98;6.10;;;;;;;17.36;83.20;99905.97;5087366;28;20027;-29
2022/06/24 00:22:21;;;;;;;9.52;5.75;;;;;;;17.40;81.66;99878.22;5087973;28;20782;-30
2022/06/24 00:24:46;;;;;;;8.93;6.10;;;;;;;17.53;81.24;99893.06;5069107;28;20028;-29
2022/06/24 00:27:22;;;;;;;9.93;5.90;;;;;;;17.50;81.66;99900.88;5087915;28;20043;-29
2022/06/24 00:29:49;;;;;;;11.48;6.20;;;;;;;17.37;81.51;99888.75;5087297;28;20031;-32
2022/06/24 00:32:16;;;;;;;11.65;6.22;;;;;;;17.45;80.96;99889.00;5068976;28;20031;-34
2022/06/24 00:34:42;;;;;;;11.52;5.95;;;;;;;17.46;80.96;99889.81;5069332;28;20035;-30
2022/06/24 00:37:27;;;;;;;9.98;5.75;;;;;;;17.62;79.74;99886.03;5087514;28;20450;-29
2022/06/24 00:39:59;;;;;;;12.57;5.82;;;;;;;17.35;79.89;99863.94;5069066;28;20024;-29
2022/06/24 00:42:25;;;;;;;9.77;5.63;;;;;;;17.38;80.75;99871.47;5069242;28;20459;-29
2022/06/24 00:45:02;;;;;;;8.38;5.72;;;;;;;17.19;81.58;99885.47;5068933;28;20066;-29
2022/06/24 00:47:30;;;;;;;7.75;5.45;;;;;;;17.27;80.80;99884.94;5087487;28;20020;-30
2022/06/24 00:50:00;;;;;;;9.05;5.60;;;;;;;17.33;80.80;99876.88;5087004;28;20024;-31
2022/06/24 00:52:26;;;;;;;8.88;5.60;;;;;;;17.05;81.77;99860.13;5087510;28;20105;-30
2022/06/24 00:54:52;;;;;;;9.30;5.68;;;;;;;17.22;81.37;99876.88;5087034;28;20039;-32
2022/06/24 00:57:17;;;;;;;11.05;5.95;;;;;;;17.09;81.96;99868.47;5086884;28;20034;-30
2022/06/24 00:59:47;;;;;;;8.75;5.80;;;;;;;17.29;80.60;99849.66;5087683;28;20134;-29
2022/06/24 01:02:16;;;;;;;7.93;5.65;;;;;;;17.33;80.33;99850.72;5068912;28;20032;-31
2022/06/24 01:04:42;;;;;;;9.48;5.30;;;;;;;17.87;77.37;99865.56;5068722;28;20051;-30
2022/06/24 01:07:08;;;;;;;8.65;5.68;;;;;;;17.79;78.18;99857.97;5068549;28;20038;-30
2022/06/24 01:09:33;;;;;;;11.48;5.72;;;;;;;17.83;78.21;99853.69;5086996;28;20031;-33
2022/06/24 01:11:59;;;;;;;8.05;5.28;;;;;;;17.71;78.03;99834.25;5087015;28;20028;-28
2022/06/24 01:14:24;;;;;;;7.90;5.30;;;;;;;17.16;80.68;99845.59;5086739;28;20052;-30
2022/06/24 01:16:50;;;;;;;9.90;5.90;;;;;;;17.25;81.01;99862.84;5087110;28;20034;-30
2022/06/24 01:19:16;;;;;;;11.30;6.07;;;;;;;17.43;79.29;99847.22;5087089;28;20028;-29
2022/06/24 01:21:47;;;;;;;17.83;8.90;;;;;;;17.41;78.91;99849.38;5087272;28;20032;-31
2022/06/24 01:24:17;;;;;;;18.80;8.57;;;;;;;17.27;79.43;99863.38;5086610;28;20032;-30
2022/06/24 01:26:50;;;;;;;15.48;6.72;;;;;;;17.23;79.43;99878.47;5087089;28;20169;-30
2022/06/24 01:29:15;;;;;;;9.40;5.63;;;;;;;16.98;79.55;99862.25;5086674;28;20032;-29
2022/06/24 01:31:48;;;;;;;7.78;5.32;;;;;;;16.68;78.76;99883.41;5086926;28;20031;-29
2022/06/24 01:34:15;;;;;;;8.75;5.32;;;;;;;16.44;78.88;99872.28;5086598;28;20032;-29
2022/06/24 01:36:41;;;;;;;10.37;5.93;;;;;;;16.33;80.23;99873.31;5070683;28;20115;-29
2022/06/24 01:39:07;;;;;;;9.30;5.88;;;;;;;16.26;80.76;99902.31;5091241;28;20901;-29
2022/06/24 01:41:33;;;;;;;9.00;5.53;;;;;;;16.03;82.45;99890.88;5072439;28;20028;-33
2022/06/24 01:43:59;;;;;;;8.23;6.05;;;;;;;16.10;82.78;99889.84;5072299;28;20024;-29
2022/06/24 01:46:25;;;;;;;9.95;6.00;;;;;;;16.09;83.04;99890.94;5072418;28;20039;-29
2022/06/24 01:48:50;;;;;;;8.23;6.25;;;;;;;16.03;84.40;99888.19;5090662;28;20515;-28
2022/06/24 01:51:18;;;;;;;12.27;6.20;;;;;;;16.23;83.88;99892.09;5090436;28;20076;-29
2022/06/24 01:53:44;;;;;;;9.70;5.40;;;;;;;16.17;84.19;99882.38;5072251;28;20464;-37
2022/06/24 01:56:09;;;;;;;8.35;6.35;;;;;;;16.47;82.26;99887.09;5072384;28;20032;-30
2022/06/24 01:58:35;;;;;;;10.65;6.43;;;;;;;16.68;81.55;99904.94;5090551;28;20050;-30
2022/06/24 02:01:00;;;;;;;8.32;5.45;;;;;;;16.48;81.53;99888.72;5090417;28;20510;-29
2022/06/24 02:03:27;;;;;;;9.55;5.85;;;;;;;16.24;83.47;99893.69;5071952;28;20027;-29
2022/06/24 02:05:54;;;;;;;8.18;5.15;;;;;;;15.95;85.05;99902.13;5089921;28;20388;-32
2022/06/24 02:08:19;;;;;;;8.32;5.55;;;;;;;16.13;84.21;99887.44;5090198;28;20024;-33
2022/06/24 02:13:29;;;;;;;8.38;6.00;;;;;;;16.43;81.97;99881.44;5090449;28;20027;-29
2022/06/24 02:16:01;;;;;;;7.65;5.72;;;;;;;16.68;81.54;99901.47;5089674;28;20052;-29
2022/06/24 02:18:28;;;;;;;8.45;5.30;;;;;;;16.79;79.77;99900.41;5089929;28;20138;-29
2022/06/24 02:20:54;;;;;;;8.13;5.25;;;;;;;16.59;81.19;99874.22;5071910;28;20032;-34
2022/06/24 02:23:20;;;;;;;10.32;4.93;;;;;;;16.73;79.94;99890.69;5090225;28;20020;-29
2022/06/24 02:25:47;;;;;;;10.85;5.95;;;;;;;16.62;80.54;99878.28;5090173;28;20513;-32
2022/06/24 02:28:13;;;;;;;9.80;5.43;;;;;;;16.41;81.70;99875.50;5071516;28;20024;-29
2022/06/24 02:30:39;;;;;;;7.78;5.60;;;;;;;16.31;81.10;99850.44;5089888;28;20039;-32
2022/06/24 02:33:06;;;;;;;9.80;5.43;;;;;;;16.15;82.90;99884.50;5071234;28;20100;-29
2022/06/24 02:35:32;;;;;;;8.48;5.07;;;;;;;16.05;82.65;99858.34;5089809;28;20600;-31
2022/06/24 02:37:57;;;;;;;8.90;5.45;;;;;;;15.86;83.85;99871.41;5089690;28;20016;-29
2022/06/24 02:43:16;;;;;;;8.20;5.10;;;;;;;16.25;81.89;99879.19;5089800;28;20082;-28
2022/06/24 02:45:47;;;;;;;7.03;5.32;;;;;;;16.19;81.20;99858.69;5071274;28;20483;-28
2022/06/24 02:48:14;;;;;;;7.60;5.50;;;;;;;15.98;81.54;99850.50;5070656;28;20119;-30
2022/06/24 02:50:42;;;;;;;8.55;5.38;;;;;;;16.04;81.96;99860.25;5089511;28;20024;-30
2022/06/24 02:53:08;;;;;;;10.40;5.73;;;;;;;16.25;81.14;99877.28;5071324;28;20036;-31
2022/06/24 02:55:35;;;;;;;12.70;5.70;;;;;;;16.01;82.63;99871.50;5089388;28;20363;-30
2022/06/24 02:58:01;;;;;;;8.07;5.50;;;;;;;15.91;83.29;99857.19;5070823;28;20024;-29
2022/06/24 03:00:26;;;;;;;10.93;5.30;;;;;;;15.74;84.37;99873.47;5089584;28;20031;-31
2022/06/24 03:02:52;;;;;;;9.52;5.13;;;;;;;15.50;86.29;99857.66;5089534;28;20587;-32
2022/06/24 03:05:17;;;;;;;7.78;5.40;;;;;;;15.76;85.67;99876.72;5089132;28;20024;-31
2022/06/24 03:07:43;;;;;;;8.73;4.93;;;;;;;15.95;84.54;99891.34;5089314;28;20028;-30
2022/06/24 03:10:09;;;;;;;7.45;4.95;;;;;;;16.02;83.27;99901.91;5088868;28;20077;-28
2022/06/24 03:12:34;;;;;;;8.80;5.43;;;;;;;15.95;83.47;99895.94;5089116;28;20043;-35
2022/06/24 03:15:00;;;;;;;11.60;5.90;;;;;;;15.83;84.39;99901.50;5088982;28;20040;-30
2022/06/24 03:17:25;;;;;;;10.85;6.65;;;;;;;15.57;86.85;99901.28;5089234;28;20028;-31
2022/06/24 03:19:51;;;;;;;13.77;7.15;;;;;;;15.70;87.74;99905.41;5089142;28;20020;-29
2022/06/24 03:22:16;;;;;;;10.38;6.82;;;;;;;15.72;89.40;99886.34;5089144;28;20514;-30
2022/06/24 03:24:42;;;;;;;13.45;7.10;;;;;;;16.01;88.30;99906.47;5089444;28;20039;-30
2022/06/24 03:27:07;;;;;;;10.00;6.70;;;;;;;16.11;88.25;99891.47;5070639;28;20032;-29
2022/06/24 03:29:33;;;;;;;10.10;6.60;;;;;;;16.31;87.10;99878.13;5089283;28;20027;-31
2022/06/24 03:31:58;;;;;;;10.73;7.25;;;;;;;16.36;87.18;99878.16;5088500;28;20028;-31
2022/06/24 03:34:24;;;;;;;10.57;6.63;;;;;;;16.44;88.65;99899.19;5088729;28;20032;-28
2022/06/24 03:36:50;;;;;;;11.13;6.78;;;;;;;16.46;88.47;99896.22;5070660;28;20228;-28
2022/06/24 03:39:15;;;;;;;11.57;7.30;;;;;;;16.72;87.40;99885.59;5088647;28;20055;-32
2022/06/24 03:41:41;;;;;;;12.20;6.70;;;;;;;16.85;87.63;99894.00;5088470;28;20510;-28
2022/06/24 03:44:06;;;;;;;10.85;6.90;;;;;;;16.93;87.39;99892.69;5070001;28;20114;-29
2022/06/24 03:46:32;;;;;;;12.23;7.50;;;;;;;16.84;87.98;99897.78;5070432;28;20051;-30
2022/06/24 03:48:57;;;;;;;10.57;7.88;;;;;;;17.14;87.44;99901.63;5088445;28;20031;-29
2022/06/24 03:51:23;;;;;;;12.60;7.30;;;;;;;17.07;87.51;99906.47;5088591;28;20081;-30
2022/06/24 03:53:48;;;;;;;10.55;8.30;;;;;;;16.76;89.71;99895.56;5087970;28;20050;-30
2022/06/24 03:56:14;;;;;;;12.23;8.20;;;;;;;16.57;91.51;99886.31;5088457;28;20040;-33
2022/06/24 03:58:39;;;;;;;13.57;8.82;;;;;;;16.79;90.63;99886.94;5087931;28;20103;-30
2022/06/24 04:01:05;;;;;;;11.73;8.52;;;;;;;16.90;91.35;99903.16;5088281;28;20020;-29
2022/06/24 04:03:30;;;;;;;11.10;9.02;;;;;;;17.05;91.19;99908.59;5088368;28;20491;-29
2022/06/24 04:05:56;;;;;;;12.77;8.65;;;;;;;16.91;91.24;99888.63;5087991;28;20036;-33
2022/06/24 04:08:21;;;;;;;12.70;8.45;;;;;;;16.98;91.90;99905.34;5088336;28;20116;-30
2022/06/24 04:10:47;;;;;;;15.02;8.70;;;;;;;17.10;92.03;99905.09;5088047;28;20066;-33
2022/06/24 04:13:12;;;;;;;13.38;9.13;;;;;;;17.03;91.39;99897.28;5088100;28;20028;-29
2022/06/24 04:15:49;;;;;;;11.77;9.55;;;;;;;17.22;91.26;99901.13;5087819;28;20052;-29
2022/06/24 04:18:15;;;;;;;11.88;8.60;;;;;;;17.27;90.98;99895.72;5088290;28;20043;-30
2022/06/24 04:20:41;;;;;;;13.50;8.90;;;;;;;17.29;91.14;99895.47;5088134;28;20043;-34
2022/06/24 04:23:07;;;;;;;13.23;8.52;;;;;;;17.27;91.67;99882.25;5088019;28;20030;-30
2022/06/24 04:25:33;;;;;;;11.32;8.15;;;;;;;17.44;90.52;99900.06;5087836;28;20036;-29
2022/06/24 04:27:59;;;;;;;13.55;7.88;;;;;;;17.35;88.21;99866.63;5085369;28;20107;-32
2022/06/24 04:30:24;;;;;;;9.98;6.90;;;;;;;17.51;87.89;99889.81;5088224;28;20146;-29
2022/06/24 04:32:50;;;;;;;12.15;8.40;;;;;;;17.63;88.50;99887.66;5087818;28;20030;-32
2022/06/24 04:35:15;;;;;;;9.52;7.35;;;;;;;18.00;87.25;99886.59;5087851;28;20031;-29
2022/06/24 04:37:41;;;;;;;10.98;7.80;;;;;;;18.09;86.79;99888.72;5069323;28;20481;-35
2022/06/24 04:40:11;;;;;;;12.13;7.88;;;;;;;18.30;84.20;99895.69;5087265;28;20032;-34
2022/06/24 04:42:37;;;;;;;12.48;6.88;;;;;;;18.48;83.33;99895.09;5069661;28;20466;-33
2022/06/24 04:45:04;;;;;;;10.85;6.65;;;;;;;18.53;83.53;99882.66;5069775;28;20024;-30
2022/06/24 04:47:30;;;;;;;7.93;6.18;;;;;;;18.65;83.29;99875.03;5069703;28;20107;-29
2022/06/24 04:49:55;;;;;;;9.75;5.90;;;;;;;18.83;80.42;99887.94;5087467;28;20406;-31
2022/06/24 04:52:21;;;;;;;10.32;6.50;;;;;;;18.78;80.65;99868.25;5087735;28;20085;-31
2022/06/24 04:54:48;;;;;;;10.52;6.47;;;;;;;18.74;81.41;99889.59;5087150;28;20118;-33
2022/06/24 04:57:13;;;;;;;12.02;7.00;;;;;;;19.07;80.53;99887.28;5069754;28;20115;-30
2022/06/24 04:59:39;;;;;;;10.43;6.60;;;;;;;19.38;78.05;99882.47;5087682;28;20115;-29
2022/06/24 05:02:05;;;;;;;11.60;7.00;;;;;;;19.30;78.68;99884.97;5069192;28;20491;-29
2022/06/24 05:04:31;;;;;;;10.43;7.35;;;;;;;19.41;77.84;99900.84;5087371;28;20039;-31
2022/06/24 05:06:56;;;;;;;11.15;7.35;;;;;;;19.20;78.03;99900.16;5087386;28;20031;-30
2022/06/24 05:09:21;;;;;;;14.95;6.93;;;;;;;19.33;77.43;99906.03;5087515;28;20036;-31
2022/06/24 05:11:50;;;;;;;11.15;6.88;;;;;;;19.52;77.32;99903.47;5087220;28;20028;-37
2022/06/24 05:14:16;;;;;;;13.57;7.25;;;;;;;19.51;76.45;99894.53;5068826;28;20066;-29
2022/06/24 05:16:42;;;;;;;9.05;6.05;;;;;;;19.45;75.15;99896.50;5069223;28;20036;-28
2022/06/24 05:19:09;;;;;;;9.35;5.35;;;;;;;19.34;76.10;99902.25;5087440;28;20087;-33
2022/06/24 05:21:34;;;;;;;9.98;6.15;;;;;;;19.52;76.35;99920.50;5068927;28;20566;-30
2022/06/24 05:24:00;;;;;;;8.38;6.00;;;;;;;19.63;75.27;99916.63;5087010;28;20051;-30
2022/06/24 05:26:25;;;;;;;9.68;5.68;;;;;;;19.73;75.05;99921.19;5087406;28;20032;-30
2022/06/24 05:28:51;;;;;;;8.43;6.10;;;;;;;19.97;73.13;99907.72;5087519;28;20041;-29
2022/06/24 05:31:16;;;;;;;9.50;6.03;;;;;;;20.01;73.10;99916.88;5087398;28;20491;-29
2022/06/24 05:33:42;;;;;;;12.00;6.53;;;;;;;20.18;72.83;99923.75;5087357;28;20106;-28
2022/06/24 05:36:07;;;;;;;35.60;8.52;;;;;;;20.36;73.42;99919.53;5087042;28;20036;-29
2022/06/24 05:38:33;;;;;;;12.63;6.93;;;;;;;20.38;74.16;99901.09;5087073;28;20028;-35
2022/06/24 05:40:59;;;;;;;9.07;7.00;;;;;;;20.48;73.72;99904.47;5069144;28;20017;-32
2022/06/24 05:43:24;;;;;;;10.57;7.25;;;;;;;20.70;74.16;99922.13;5087244;28;20404;-30
2022/06/24 05:45:50;;;;;;;10.55;7.78;;;;;;;20.80;72.77;99923.91;5086883;28;20178;-30
2022/06/24 05:48:16;;;;;;;9.30;6.88;;;;;;;20.92;73.73;99931.63;5087048;28;20036;-35
2022/06/24 05:50:42;;;;;;;9.95;7.45;;;;;;;20.88;75.45;99936.81;5087032;28;20032;-29
2022/06/24 05:55:58;;;;;;;12.07;7.38;;;;;;;21.42;74.09;99943.69;5086812;28;20400;-32
2022/06/24 05:58:25;;;;;;;11.52;7.53;;;;;;;21.38;73.22;99939.13;5068896;28;20024;-34
2022/06/24 06:00:51;;;;;;;13.55;7.57;;;;;;;21.49;73.07;99928.94;5087176;28;20030;-34
2022/06/24 06:03:17;;;;;;;10.80;7.63;;;;;;;21.61;71.78;99940.94;5086855;28;20032;-31
2022/06/24 06:05:43;;;;;;;11.68;7.53;;;;;;;21.76;72.70;99941.81;5068472;28;20031;-29
2022/06/24 06:08:08;;;;;;;11.40;7.35;;;;;;;21.63;71.92;99938.75;5086751;28;20028;-32
2022/06/24 06:10:37;;;;;;;10.23;7.93;;;;;;;21.65;71.85;99931.13;5087042;28;20031;-35
2022/06/24 06:13:03;;;;;;;11.35;7.53;;;;;;;21.68;71.87;99929.75;5087045;28;20024;-30
2022/06/24 06:15:29;;;;;;;11.98;7.53;;;;;;;21.71;71.79;99923.72;5086261;28;20492;-31
2022/06/24 06:17:55;;;;;;;12.07;8.40;;;;;;;21.83;72.77;99942.25;5086441;28;20039;-30
2022/06/24 06:20:20;;;;;;;12.82;8.43;;;;;;;21.64;72.62;99928.72;5086868;28;20032;-34
2022/06/24 06:22:46;;;;;;;11.07;7.38;;;;;;;21.85;71.57;99929.19;5089126;28;20020;-29
2022/06/24 06:25:14;;;;;;;15.43;7.57;;;;;;;21.80;71.77;99916.50;5090739;28;20089;-34
2022/06/24 06:27:40;;;;;;;11.40;8.20;;;;;;;22.12;70.41;99935.78;5090495;28;20020;-32
2022/06/24 06:30:06;;;;;;;11.35;8.43;;;;;;;22.15;69.74;99913.44;5090320;28;20068;-31
2022/06/24 06:32:31;;;;;;;11.60;8.38;;;;;;;22.32;70.17;99911.00;5071810;28;20056;-35
2022/06/24 06:34:57;;;;;;;13.05;7.80;;;;;;;22.64;69.16;99922.88;5090319;28;20089;-31
2022/06/24 06:37:22;;;;;;;11.82;8.35;;;;;;;22.76;68.12;99912.28;5090172;28;20024;-31
2022/06/24 06:39:48;;;;;;;10.30;7.50;;;;;;;22.90;68.02;99919.63;5089994;28;20099;-33
2022/06/24 06:42:14;;;;;;;13.13;7.38;;;;;;;23.24;67.88;99898.19;5090588;28;20472;-29
2022/06/24 06:44:39;;;;;;;12.93;7.70;;;;;;;23.49;66.29;99903.34;5072931;28;20040;-30
2022/06/24 06:47:05;;;;;;;15.68;8.13;;;;;;;23.84;65.01;99923.47;5091230;28;20028;-32
2022/06/24 06:49:32;;;;;;;12.93;7.70;;;;;;;23.69;64.97;99918.38;5090799;28;20380;-32
2022/06/24 06:51:59;;;;;;;10.82;7.50;;;;;;;23.82;65.85;99915.63;5072598;28;20089;-30
2022/06/24 06:54:25;;;;;;;15.25;8.60;;;;;;;23.88;66.24;99904.59;5072497;28;20036;-30
2022/06/24 06:56:51;;;;;;;14.52;8.73;;;;;;;24.14;64.93;99916.44;5090965;28;20035;-33
2022/06/24 06:59:16;;;;;;;10.27;6.90;;;;;;;24.03;63.53;99915.91;5090911;28;20024;-30
2022/06/24 07:01:41;;;;;;;11.13;6.80;;;;;;;24.00;65.05;99913.78;5090713;28;20027;-33
2022/06/24 07:04:07;;;;;;;10.60;8.00;;;;;;;24.00;65.87;99907.53;5090466;28;20047;-30
2022/06/24 07:06:32;;;;;;;10.70;7.10;;;;;;;24.04;65.45;99913.97;5090917;28;20031;-34
2022/06/24 07:08:58;;;;;;;9.82;7.30;;;;;;;24.03;63.94;99926.00;5090820;28;20028;-31
2022/06/24 07:11:23;;;;;;;14.68;8.52;;;;;;;24.35;65.91;99930.28;5090482;28;20099;-38
2022/06/24 07:13:49;;;;;;;11.43;7.93;;;;;;;24.42;62.73;99924.41;5090336;28;20024;-29
2022/06/24 07:16:14;;;;;;;13.77;7.68;;;;;;;24.47;64.91;99921.53;5089974;28;20052;-29
2022/06/24 07:18:40;;;;;;;9.73;6.85;;;;;;;24.49;64.82;99918.50;5090278;28;20035;-34
2022/06/24 07:21:05;;;;;;;13.20;7.72;;;;;;;24.55;64.25;99917.25;5090439;28;20028;-33
2022/06/24 07:23:31;;;;;;;15.98;7.78;;;;;;;24.57;63.72;99913.09;5072169;28;20103;-30
2022/06/24 07:25:57;;;;;;;12.18;7.32;;;;;;;25.01;62.62;99924.91;5090050;28;20129;-36
2022/06/24 07:28:25;;;;;;;10.10;6.47;;;;;;;25.01;61.18;99927.63;5071746;28;20028;-29
2022/06/24 07:30:51;;;;;;;8.80;6.97;;;;;;;25.06;61.01;99915.75;5071700;28;20803;-31
2022/06/24 07:33:17;;;;;;;12.40;6.80;;;;;;;25.24;61.04;99927.53;5071816;28;20031;-29
2022/06/24 07:35:42;;;;;;;10.50;6.07;;;;;;;25.30;59.89;99925.44;5090097;28;20032;-30
2022/06/24 07:38:07;;;;;;;10.85;6.40;;;;;;;25.00;60.44;99919.75;5071513;28;20031;-29
2022/06/24 07:40:33;;;;;;;11.18;8.13;;;;;;;25.00;60.46;99911.59;5090198;28;20028;-31
2022/06/24 07:42:59;;;;;;;8.90;5.88;;;;;;;25.36;60.48;99916.78;5089854;28;20527;-29
2022/06/24 07:45:24;;;;;;;9.57;6.15;;;;;;;25.56;60.50;99907.13;5071639;28;20161;-30
2022/06/24 07:47:49;;;;;;;16.42;6.13;;;;;;;25.36;60.11;99900.38;5089367;28;20039;-32
2022/06/24 07:50:15;;;;;;;11.40;6.05;;;;;;;25.39;59.51;99918.84;5089892;28;20039;-30
2022/06/24 07:52:40;;;;;;;9.35;5.88;;;;;;;25.44;59.45;99915.97;5089762;28;20103;-30
2022/06/24 07:57:50;;;;;;;9.13;5.80;;;;;;;25.64;59.56;99905.50;5089334;28;20027;-34
2022/06/24 08:00:16;;;;;;;8.77;5.82;;;;;;;25.80;58.44;99900.31;5089701;28;20031;-32
2022/06/24 08:02:42;;;;;;;9.68;5.65;;;;;;;26.09;58.59;99896.09;5071580;28;20075;-32
2022/06/24 08:05:08;;;;;;;10.27;5.93;;;;;;;26.01;57.39;99905.91;5089795;28;20452;-31
2022/06/24 08:07:33;;;;;;;8.52;5.47;;;;;;;26.09;58.61;99907.00;5071269;28;20020;-29
2022/06/24 08:09:59;;;;;;;7.68;4.90;;;;;;;26.03;56.53;99899.00;5089242;28;20020;-31
2022/06/24 08:12:24;;;;;;;8.60;6.20;;;;;;;26.52;56.71;99903.28;5089477;28;20055;-29
2022/06/24 08:14:50;;;;;;;8.85;5.50;;;;;;;26.33;57.48;99904.50;5088749;28;20056;-29
2022/06/24 08:17:15;;;;;;;9.50;5.57;;;;;;;26.56;53.20;99893.28;5089631;28;20024;-29
2022/06/24 08:19:41;;;;;;;9.63;5.95;;;;;;;26.56;53.30;99896.03;5089755;28;20681;-29
2022/06/24 08:22:07;;;;;;;9.50;5.57;;;;;;;26.96;54.87;99901.13;5089002;28;20491;-30
2022/06/24 08:24:32;;;;;;;10.38;5.63;;;;;;;27.00;54.26;99896.59;5089537;28;20031;-31
2022/06/24 08:26:58;;;;;;;11.15;6.18;;;;;;;26.72;53.89;99891.63;5089063;28;20499;-30
2022/06/24 08:29:23;;;;;;;8.20;5.70;;;;;;;27.19;53.73;99909.81;5070728;28;20043;-31
2022/06/24 08:31:49;;;;;;;7.53;5.10;;;;;;;27.19;53.63;99888.69;5088758;28;20039;-30
2022/06/24 08:34:15;;;;;;;6.82;4.38;;;;;;;26.90;50.43;99905.19;5089022;28;20024;-29
2022/06/24 08:36:40;;;;;;;6.97;4.05;;;;;;;26.60;51.29;99888.78;5088802;28;20075;-29
2022/06/24 08:39:06;;;;;;;7.20;4.22;;;;;;;26.86;51.08;99892.16;5089050;28;20028;-29
2022/06/24 08:41:32;;;;;;;14.68;11.68;;;;;;;27.34;49.29;99895.53;5070678;28;20024;-37
2022/06/24 08:43:58;;;;;;;11.35;5.00;;;;;;;27.52;48.80;99867.97;5088452;28;20396;-32
2022/06/24 08:46:25;;;;;;;7.18;4.50;;;;;;;27.57;48.59;99890.50;5087605;28;20024;-35
2022/06/24 08:48:56;;;;;;;9.73;4.93;;;;;;;27.68;46.68;99890.06;5069670;28;20028;-32
2022/06/24 08:51:22;;;;;;;5.90;3.55;;;;;;;27.67;46.25;99880.25;5087669;28;20254;-29
2022/06/24 08:53:48;;;;;;;7.05;3.38;;;;;;;27.80;41.82;99870.91;5069089;28;20055;-33
2022/06/24 08:56:14;;;;;;;4.20;3.10;;;;;;;28.02;40.56;99886.16;5069312;28;20028;-33
2022/06/24 08:58:40;;;;;;;5.38;3.13;;;;;;;27.83;42.30;99887.47;5087384;28;20400;-34
2022/06/24 09:01:06;;;;;;;6.07;3.65;;;;;;;27.88;44.95;99864.56;5069279;28;20016;-31
2022/06/24 09:03:32;;;;;;;7.63;3.25;;;;;;;28.49;42.29;99872.00;5087392;28;20028;-32
2022/06/24 09:05:57;;;;;;;6.75;3.28;;;;;;;28.35;40.80;99872.34;5087274;28;20483;-29
2022/06/24 09:08:32;;;;;;;5.28;3.13;;;;;;;28.57;38.57;99876.59;5087590;28;20726;-35
2022/06/24 09:11:08;;;;;;;3.40;2.58;;;;;;;29.01;38.07;99870.44;5069123;28;20028;-31
2022/06/24 09:13:53;;;;;;;6.38;3.10;;;;;;;29.31;37.51;99878.38;5087713;28;20024;-29
2022/06/24 09:16:18;;;;;;;5.60;3.20;;;;;;;29.28;37.99;99879.06;5087552;28;20052;-32
2022/06/24 09:18:55;;;;;;;9.35;3.05;;;;;;;29.70;39.14;99867.66;5087497;28;20020;-29
2022/06/24 09:21:28;;;;;;;3.88;2.67;;;;;;;29.84;38.20;99865.31;5085980;28;20040;-33
2022/06/24 09:23:59;;;;;;;5.40;2.88;;;;;;;30.16;37.42;99885.38;5069044;28;20055;-32
2022/06/24 09:26:30;;;;;;;5.18;2.63;;;;;;;29.96;34.52;99886.44;5069201;28;20130;-31
2022/06/24 09:28:56;;;;;;;6.47;2.70;;;;;;;29.65;32.38;99882.47;5087299;28;20116;-32
2022/06/24 09:31:25;;;;;;;6.68;2.97;;;;;;;29.00;37.02;99879.84;5069060;28;20114;-34
2022/06/24 09:33:51;;;;;;;5.05;3.10;;;;;;;28.85;38.34;99881.34;5068577;28;20495;-29
2022/06/24 09:36:17;;;;;;;5.90;3.03;;;;;;;29.13;39.66;99870.44;5087234;28;20032;-31
2022/06/24 09:39:03;;;;;;;5.05;2.97;;;;;;;29.35;36.82;99868.31;5087405;28;20024;-31
2022/06/24 09:41:29;;;;;;;5.60;2.97;;;;;;;30.00;36.75;99876.31;5087311;28;20035;-32
2022/06/24 09:44:01;;;;;;;5.30;2.67;;;;;;;30.38;33.54;99875.72;5068573;28;20021;-35
2022/06/24 09:46:27;;;;;;;5.13;2.72;;;;;;;30.06;33.08;99883.16;5068831;28;20116;-30
2022/06/24 09:49:03;;;;;;;7.03;2.60;;;;;;;30.05;33.61;99876.03;5068942;28;20103;-31
2022/06/24 09:51:29;;;;;;;5.63;2.50;;;;;;;30.67;33.43;99868.09;5087249;28;20028;-36
2022/06/24 09:53:55;;;;;;;3.38;2.30;;;;;;;30.99;31.95;99876.25;5068878;28;20787;-31
2022/06/24 09:56:22;;;;;;;3.47;2.35;;;;;;;30.70;31.94;99875.63;5086929;28;20466;-34
2022/06/24 10:01:35;;;;;;;3.58;2.50;;;;;;;30.90;33.05;99865.47;5091269;28;20097;-29
2022/06/24 10:04:04;;;;;;;6.05;2.60;;;;;;;30.88;30.47;99858.75;5090934;28;20016;-29
2022/06/24 10:06:34;;;;;;;3.90;2.25;;;;;;;30.86;31.46;99856.31;5072671;28;20038;-33
2022/06/24 10:09:03;;;;;;;4.38;2.60;;;;;;;30.92;31.51;99865.91;5072493;28;20116;-37
2022/06/24 10:11:33;;;;;;;3.25;2.33;;;;;;;30.73;31.24;99855.66;5071947;28;20181;-34
2022/06/24 10:13:59;;;;;;;6.43;2.70;;;;;;;30.96;32.27;99860.47;5090181;28;20127;-30
2022/06/24 10:16:25;;;;;;;8.43;2.80;;;;;;;31.08;32.09;99856.75;5072425;28;20032;-30
2022/06/24 10:18:53;;;;;;;4.97;2.58;;;;;;;30.89;30.23;99852.06;5090647;28;20399;-34
2022/06/24 10:21:19;;;;;;;5.75;2.70;;;;;;;31.00;30.60;99851.13;5072046;28;20031;-29
2022/06/24 10:23:47;;;;;;;5.93;2.50;;;;;;;31.35;31.71;99860.47;5071905;28;20127;-36
2022/06/24 10:26:28;;;;;;;6.32;2.58;;;;;;;31.23;31.18;99853.94;5090589;28;20028;-29
2022/06/24 10:29:00;;;;;;;4.97;2.53;;;;;;;31.56;30.31;99860.88;5072308;28;20039;-30
2022/06/24 10:34:26;;;;;;;5.90;3.08;;;;;;;30.92;31.20;99838.38;5089905;28;20092;-37
2022/06/24 10:36:58;;;;;;;6.28;2.60;;;;;;;30.56;30.65;99834.03;5072174;28;20081;-30
2022/06/24 10:39:26;;;;;;;6.47;2.70;;;;;;;30.98;31.03;99842.44;5072061;28;20027;-29
2022/06/24 10:42:10;;;;;;;4.75;2.53;;;;;;;30.83;30.73;99840.50;5071554;28;20192;-32
2022/06/24 10:44:52;;;;;;;4.85;2.38;;;;;;;31.21;30.14;99834.22;5071580;28;20032;-32
2022/06/24 10:47:19;;;;;;;4.57;2.58;;;;;;;31.10;31.54;99833.22;5071788;28;20526;-33
2022/06/24 10:50:01;;;;;;;3.80;2.38;;;;;;;30.74;30.03;99835.22;5071229;28;20036;-37
2022/06/24 10:52:48;;;;;;;5.47;2.45;;;;;;;30.99;31.42;99838.50;5071553;28;20406;-35
2022/06/24 10:55:17;;;;;;;5.60;2.85;;;;;;;30.81;30.80;99838.13;5071166;28;20407;-33
2022/06/24 10:57:54;;;;;;;6.25;2.58;;;;;;;30.78;29.44;99838.03;5090025;28;20085;-29
2022/06/24 11:00:28;;;;;;;5.57;2.30;;;;;;;31.05;29.63;99836.25;5089723;28;20024;-30
2022/06/24 11:03:14;;;;;;;5.15;2.20;;;;;;;31.11;31.50;99837.56;5071458;28;20024;-30
2022/06/24 11:05:41;;;;;;;4.55;2.22;;;;;;;31.14;31.06;99834.09;5071248;28;20062;-30
2022/06/24 11:08:14;;;;;;;;;;;;;;;31.01;30.86;99840.91;5071461;28;20107;-30
2022/06/24 11:10:40;;;;;;;60.63;7.53;;;;;;;30.77;29.97;99829.00;5089691;28;19912;-30
2022/06/24 11:13:06;;;;;;;4.27;2.33;;;;;;;31.06;30.50;99837.88;5071219;28;20396;-32
2022/06/24 11:15:49;;;;;;;5.63;2.28;;;;;;;31.29;30.44;99828.84;5070785;28;20048;-31
2022/06/24 11:18:23;;;;;;;5.47;2.70;;;;;;;31.39;30.92;99844.78;5070998;28;20039;-31
2022/06/24 11:20:56;;;;;;;6.50;2.50;;;;;;;32.21;31.11;99837.19;5089767;28;20114;-30
2022/06/24 11:23:24;;;;;;;6.88;2.65;;;;;;;32.26;30.50;99831.31;5071135;28;20024;-30
2022/06/24 11:25:52;;;;;;;5.55;2.42;;;;;;;32.10;28.05;99847.22;5070858;28;20427;-31
2022/06/24 11:28:21;;;;;;;4.25;2.40;;;;;;;32.18;29.70;99848.94;5070687;28;20086;-32
2022/06/24 11:30:48;;;;;;;6.45;2.45;;;;;;;31.56;29.87;99847.09;5070935;28;20385;-31
2022/06/24 11:33:13;;;;;;;6.57;2.63;;;;;;;31.62;29.47;99840.13;5070818;28;20790;-30
2022/06/24 11:35:39;;;;;;;4.32;2.47;;;;;;;31.18;31.55;99842.41;5088977;28;20365;-30
2022/06/24 11:38:07;;;;;;;3.50;2.30;;;;;;;31.10;30.32;99838.75;5088868;28;20198;-32
2022/06/24 11:40:33;;;;;;;4.43;2.20;;;;;;;30.91;30.89;99844.22;5070604;28;20119;-30
2022/06/24 11:43:09;;;;;;;4.85;2.35;;;;;;;31.45;32.34;99848.88;5088740;28;20107;-32
2022/06/24 11:45:37;;;;;;;5.10;2.30;;;;;;;31.68;31.43;99845.34;5088901;28;20100;-30